createdAt,value
2022-09-27T00:00:50.742Z,11.28
2022-09-27T00:01:50.833Z,11.28
2022-09-27T00:02:50.872Z,11.24
2022-09-27T00:03:50.701Z,11.25
2022-09-27T00:04:50.691Z,11.25
2022-09-27T00:05:50.675Z,11.25
2022-09-27T00:07:50.647Z,11.22
2022-09-27T00:08:50.636Z,11.24
2022-09-27T00:09:50.621Z,11.21
2022-09-27T00:10:50.611Z,11.24
2022-09-27T00:11:50.595Z,11.21
2022-09-27T00:12:50.607Z,11.22
2022-09-27T00:13:50.572Z,11.25
2022-09-27T00:14:50.559Z,11.21
2022-09-27T00:15:50.604Z,11.21
2022-09-27T00:16:50.537Z,11.18
2022-09-27T00:18:50.503Z,11.16
2022-09-27T00:19:50.489Z,11.17
2022-09-27T00:20:50.477Z,11.17
2022-09-27T00:21:50.466Z,11.21
2022-09-27T00:22:50.450Z,11.21
2022-09-27T00:23:50.435Z,11.24
2022-09-27T00:24:50.423Z,11.21
2022-09-27T00:25:50.410Z,11.22
2022-09-27T00:26:50.401Z,11.21
2022-09-27T00:27:50.384Z,11.21
2022-09-27T00:29:50.356Z,11.24
2022-09-27T00:30:50.369Z,11.21
2022-09-27T00:31:50.332Z,11.21
2022-09-27T00:32:50.319Z,11.18
2022-09-27T00:33:50.303Z,11.22
2022-09-27T00:34:50.293Z,11.18
2022-09-27T00:35:50.278Z,11.21
2022-09-27T00:36:50.266Z,11.21
2022-09-27T00:37:50.252Z,11.16
2022-09-27T00:38:50.238Z,11.18
2022-09-27T00:40:50.295Z,11.13
2022-09-27T00:41:50.198Z,11.10
2022-09-27T00:42:50.185Z,11.14
2022-09-27T00:43:50.172Z,11.09
2022-09-27T00:44:50.184Z,11.08
2022-09-27T00:45:50.169Z,11.05
2022-09-27T00:46:50.131Z,11.08
2022-09-27T00:47:50.118Z,11.06
2022-09-27T00:48:50.108Z,11.02
2022-09-27T00:49:50.092Z,11.05
2022-09-27T00:51:50.066Z,11.01
2022-09-27T00:52:50.054Z,11.02
2022-09-27T00:53:50.038Z,11.03
2022-09-27T00:54:50.027Z,11.01
2022-09-27T00:55:50.012Z,11.02
2022-09-27T00:56:50.001Z,11.01
2022-09-27T00:57:49.986Z,10.98
2022-09-27T00:58:49.976Z,10.98
2022-09-27T00:59:49.960Z,10.99
2022-09-27T01:00:49.970Z,10.98
2022-09-27T01:02:49.976Z,10.95
2022-09-27T01:03:49.907Z,10.93
2022-09-27T01:04:49.895Z,10.98
2022-09-27T01:05:49.881Z,10.91
2022-09-27T01:06:49.866Z,10.91
2022-09-27T01:07:49.859Z,10.88
2022-09-27T01:08:49.841Z,10.88
2022-09-27T01:09:49.827Z,10.88
2022-09-27T01:10:49.815Z,10.88
2022-09-27T01:11:49.807Z,10.83
2022-09-27T01:13:49.775Z,10.84
2022-09-27T01:14:49.762Z,10.85
2022-09-27T01:15:49.827Z,10.85
2022-09-27T01:16:49.762Z,10.87
2022-09-27T01:17:49.723Z,10.88
2022-09-27T01:18:49.708Z,10.85
2022-09-27T01:19:49.699Z,10.87
2022-09-27T01:20:49.681Z,10.84
2022-09-27T01:21:49.670Z,10.84
2022-09-27T01:22:49.655Z,10.81
2022-09-27T01:24:49.629Z,10.83
2022-09-27T01:25:49.616Z,10.84
2022-09-27T01:26:49.601Z,10.83
2022-09-27T01:27:49.589Z,10.77
2022-09-27T01:28:49.575Z,10.81
2022-09-27T01:29:49.564Z,10.78
2022-09-27T01:30:49.592Z,10.81
2022-09-27T01:31:49.537Z,10.84
2022-09-27T01:32:49.545Z,10.83
2022-09-27T01:33:49.511Z,10.80
2022-09-27T01:35:49.485Z,10.81
2022-09-27T01:36:49.470Z,10.80
2022-09-27T01:37:49.458Z,10.78
2022-09-27T01:38:49.444Z,10.80
2022-09-27T01:39:49.431Z,10.75
2022-09-27T01:40:49.525Z,10.75
2022-09-27T01:41:49.404Z,10.77
2022-09-27T01:42:49.389Z,10.73
2022-09-27T01:43:49.378Z,10.73
2022-09-27T01:44:49.362Z,10.77
2022-09-27T01:46:49.335Z,10.70
2022-09-27T01:47:49.323Z,10.72
2022-09-27T01:48:49.337Z,10.72
2022-09-27T01:49:49.297Z,10.69
2022-09-27T01:50:49.284Z,10.70
2022-09-27T01:51:49.271Z,10.66
2022-09-27T01:52:49.259Z,10.69
2022-09-27T01:53:49.244Z,10.67
2022-09-27T01:54:49.229Z,10.69
2022-09-27T01:55:49.218Z,10.73
2022-09-27T01:57:49.194Z,10.77
2022-09-27T01:58:49.179Z,10.69
2022-09-27T01:59:49.165Z,10.67
2022-09-27T02:00:49.149Z,10.65
2022-09-27T02:01:49.210Z,10.69
2022-09-27T02:02:49.225Z,10.67
2022-09-27T02:03:49.118Z,10.66
2022-09-27T02:04:49.125Z,10.63
2022-09-27T02:05:49.086Z,10.62
2022-09-27T02:06:49.071Z,10.62
2022-09-27T02:08:49.048Z,10.60
2022-09-27T02:09:49.037Z,10.58
2022-09-27T02:10:49.019Z,10.58
2022-09-27T02:11:51.776Z,10.59
2022-09-27T02:12:50.991Z,10.55
2022-09-27T02:13:48.979Z,10.55
2022-09-27T02:14:48.967Z,10.59
2022-09-27T02:15:49.013Z,10.59
2022-09-27T02:16:48.946Z,10.62
2022-09-27T02:17:48.927Z,10.60
2022-09-27T02:19:48.903Z,10.63
2022-09-27T02:20:48.913Z,10.63
2022-09-27T02:21:48.874Z,10.62
2022-09-27T02:22:48.860Z,10.58
2022-09-27T02:23:48.850Z,10.60
2022-09-27T02:24:48.831Z,10.55
2022-09-27T02:25:48.818Z,10.52
2022-09-27T02:26:48.805Z,10.51
2022-09-27T02:27:48.792Z,10.54
2022-09-27T02:28:48.777Z,10.52
2022-09-27T02:30:48.872Z,10.52
2022-09-27T02:31:48.738Z,10.50
2022-09-27T02:32:48.722Z,10.47
2022-09-27T02:33:48.713Z,10.42
2022-09-27T02:34:48.698Z,10.40
2022-09-27T02:35:48.684Z,10.42
2022-09-27T02:36:48.693Z,10.45
2022-09-27T02:37:48.658Z,10.40
2022-09-27T02:38:48.646Z,10.36
2022-09-27T02:39:48.632Z,10.38
2022-09-27T02:41:48.607Z,10.34
2022-09-27T02:42:48.593Z,10.36
2022-09-27T02:43:48.577Z,10.36
2022-09-27T02:44:48.563Z,10.32
2022-09-27T02:45:48.581Z,10.30
2022-09-27T02:46:48.537Z,10.30
2022-09-27T02:47:48.525Z,10.30
2022-09-27T02:48:48.512Z,10.33
2022-09-27T02:49:48.498Z,10.34
2022-09-27T02:50:48.483Z,10.38
2022-09-27T02:52:48.483Z,10.30
2022-09-27T02:53:48.446Z,10.29
2022-09-27T02:54:48.431Z,10.30
2022-09-27T02:55:48.419Z,10.30
2022-09-27T02:56:48.405Z,10.25
2022-09-27T02:57:48.393Z,10.23
2022-09-27T02:58:48.379Z,10.23
2022-09-27T02:59:48.367Z,10.25
2022-09-27T03:00:48.352Z,10.27
2022-09-27T03:01:48.489Z,10.27
2022-09-27T03:03:48.312Z,10.26
2022-09-27T03:04:48.298Z,10.23
2022-09-27T03:05:48.286Z,10.25
2022-09-27T03:06:48.271Z,10.25
2022-09-27T03:07:48.262Z,10.23
2022-09-27T03:08:48.270Z,10.23
2022-09-27T03:09:48.251Z,10.25
2022-09-27T03:10:48.218Z,10.26
2022-09-27T03:11:48.207Z,10.23
2022-09-27T03:12:48.191Z,10.23
2022-09-27T03:14:48.168Z,10.23
2022-09-27T03:15:48.154Z,10.25
2022-09-27T03:16:48.175Z,10.25
2022-09-27T03:17:48.128Z,10.23
2022-09-27T03:18:48.115Z,10.23
2022-09-27T03:19:48.102Z,10.26
2022-09-27T03:20:48.087Z,10.22
2022-09-27T03:21:48.076Z,10.23
2022-09-27T03:22:48.062Z,10.22
2022-09-27T03:23:48.050Z,10.22
2022-09-27T03:25:48.024Z,10.14
2022-09-27T03:26:48.012Z,10.15
2022-09-27T03:27:47.997Z,10.17
2022-09-27T03:28:47.981Z,10.15
2022-09-27T03:29:47.969Z,10.11
2022-09-27T03:30:47.984Z,10.15
2022-09-27T03:31:47.942Z,10.14
2022-09-27T03:32:47.926Z,10.08
2022-09-27T03:33:47.915Z,10.14
2022-09-27T03:34:47.900Z,10.11
2022-09-27T03:36:47.873Z,10.08
2022-09-27T03:37:47.868Z,10.08
2022-09-27T03:38:47.844Z,10.08
2022-09-27T03:39:47.836Z,10.05
2022-09-27T03:40:47.954Z,10.04
2022-09-27T03:41:47.810Z,10.05
2022-09-27T03:42:49.898Z,10.04
2022-09-27T03:43:47.781Z,10.05
2022-09-27T03:44:47.768Z,10.04
2022-09-27T03:45:47.860Z,10.01
2022-09-27T03:47:47.731Z,10.02
2022-09-27T03:48:47.714Z,10.01
2022-09-27T03:49:47.720Z,10.07
2022-09-27T03:50:47.685Z,10.05
2022-09-27T03:51:47.674Z,10.04
2022-09-27T03:52:47.658Z,10.02
2022-09-27T03:53:47.647Z,9.97
2022-09-27T03:54:47.632Z,9.96
2022-09-27T03:55:47.620Z,9.97
2022-09-27T03:56:47.627Z,9.99
2022-09-27T03:58:47.577Z,9.93
2022-09-27T03:59:47.564Z,9.94
2022-09-27T04:00:47.549Z,9.93
2022-09-27T04:01:47.589Z,9.89
2022-09-27T04:02:47.613Z,9.93
2022-09-27T04:03:47.510Z,9.87
2022-09-27T04:04:47.493Z,9.87
2022-09-27T04:05:47.484Z,9.84
2022-09-27T04:06:47.468Z,9.77
2022-09-27T04:07:47.458Z,9.75
2022-09-27T04:09:47.431Z,9.74
2022-09-27T04:10:47.414Z,9.71
2022-09-27T04:11:47.415Z,9.71
2022-09-27T04:12:47.412Z,9.68
2022-09-27T04:13:47.375Z,9.65
2022-09-27T04:14:47.362Z,9.73
2022-09-27T04:15:51.916Z,9.64
2022-09-27T04:16:47.428Z,9.70
2022-09-27T04:17:47.322Z,9.68
2022-09-27T04:18:47.307Z,9.65
2022-09-27T04:20:47.279Z,9.65
2022-09-27T04:21:47.271Z,9.65
2022-09-27T04:22:47.252Z,9.67
2022-09-27T04:23:47.242Z,9.68
2022-09-27T04:24:47.226Z,9.68
2022-09-27T04:25:47.213Z,9.70
2022-09-27T04:26:47.199Z,9.68
2022-09-27T04:27:47.186Z,9.74
2022-09-27T04:28:50.896Z,9.73
2022-09-27T04:30:47.211Z,9.73
2022-09-27T04:31:47.133Z,9.73
2022-09-27T04:32:47.117Z,9.71
2022-09-27T04:33:47.105Z,9.79
2022-09-27T04:34:47.089Z,9.77
2022-09-27T04:35:47.078Z,9.77
2022-09-27T04:36:47.064Z,9.75
2022-09-27T04:37:47.053Z,9.79
2022-09-27T04:38:47.038Z,9.83
2022-09-27T04:39:47.026Z,9.81
2022-09-27T04:41:47.000Z,9.83
2022-09-27T04:42:46.983Z,9.87
2022-09-27T04:43:46.972Z,9.86
2022-09-27T04:44:46.981Z,9.89
2022-09-27T04:45:47.052Z,9.91
2022-09-27T04:46:46.930Z,9.84
2022-09-27T04:47:46.918Z,9.87
2022-09-27T04:48:46.902Z,9.86
2022-09-27T04:49:46.892Z,9.89
2022-09-27T04:50:46.875Z,9.86
2022-09-27T04:52:46.847Z,9.89
2022-09-27T04:53:46.838Z,9.89
2022-09-27T04:54:46.823Z,9.86
2022-09-27T04:55:46.809Z,9.86
2022-09-27T04:56:46.794Z,9.89
2022-09-27T04:57:46.782Z,9.87
2022-09-27T04:58:46.766Z,9.83
2022-09-27T04:59:46.754Z,9.87
2022-09-27T05:00:46.762Z,9.86
2022-09-27T05:01:46.765Z,9.86
2022-09-27T05:03:46.700Z,9.77
2022-09-27T05:04:46.686Z,9.79
2022-09-27T05:05:46.674Z,9.75
2022-09-27T05:06:46.658Z,9.79
2022-09-27T05:07:46.645Z,9.73
2022-09-27T05:08:46.631Z,9.73
2022-09-27T05:09:46.620Z,9.73
2022-09-27T05:10:46.603Z,9.74
2022-09-27T05:11:46.592Z,9.74
2022-09-27T05:12:46.581Z,9.71
2022-09-27T05:14:46.549Z,9.70
2022-09-27T05:15:46.551Z,9.74
2022-09-27T05:16:46.585Z,9.71
2022-09-27T05:17:46.511Z,9.68
2022-09-27T05:18:46.494Z,9.73
2022-09-27T05:19:46.483Z,9.79
2022-09-27T05:20:46.469Z,9.74
2022-09-27T05:21:46.456Z,9.71
2022-09-27T05:22:46.441Z,9.74
2022-09-27T05:23:47.928Z,9.73
2022-09-27T05:25:46.403Z,9.74
2022-09-27T05:26:46.387Z,9.68
2022-09-27T05:27:46.375Z,9.73
2022-09-27T05:28:46.360Z,9.71
2022-09-27T05:29:46.349Z,9.75
2022-09-27T05:30:46.406Z,9.73
2022-09-27T05:31:46.320Z,9.81
2022-09-27T05:32:46.332Z,9.79
2022-09-27T05:33:46.296Z,9.83
2022-09-27T05:34:46.280Z,9.84
2022-09-27T05:36:46.255Z,9.83
2022-09-27T05:37:46.239Z,9.87
2022-09-27T05:38:46.228Z,9.87
2022-09-27T05:39:46.219Z,9.83
2022-09-27T05:40:46.251Z,9.81
2022-09-27T05:41:46.385Z,9.84
2022-09-27T05:42:46.173Z,9.83
2022-09-27T05:43:46.158Z,9.89
2022-09-27T05:44:46.150Z,9.89
2022-09-27T05:45:46.236Z,9.89
2022-09-27T05:47:46.104Z,10.01
2022-09-27T05:48:46.117Z,10.09
2022-09-27T05:49:46.077Z,10.11
2022-09-27T05:50:46.067Z,9.94
2022-09-27T05:51:46.050Z,10.12
2022-09-27T05:52:46.041Z,10.18
2022-09-27T05:53:46.029Z,10.17
2022-09-27T05:54:46.020Z,10.20
2022-09-27T05:55:45.997Z,10.22
2022-09-27T05:56:45.984Z,10.25
2022-09-27T05:58:45.957Z,10.32
2022-09-27T05:59:45.941Z,10.30
2022-09-27T06:00:45.930Z,10.32
2022-09-27T06:01:45.962Z,10.17
2022-09-27T06:02:45.973Z,10.12
2022-09-27T06:03:45.888Z,10.17
2022-09-27T06:04:45.900Z,10.25
2022-09-27T06:05:50.475Z,10.27
2022-09-27T06:06:45.850Z,10.30
2022-09-27T06:07:45.834Z,10.33
2022-09-27T06:09:45.808Z,10.33
2022-09-27T06:10:45.794Z,10.34
2022-09-27T06:11:45.786Z,10.36
2022-09-27T06:12:45.768Z,10.32
2022-09-27T06:13:45.754Z,10.34
2022-09-27T06:14:45.744Z,10.42
2022-09-27T06:15:45.727Z,10.41
2022-09-27T06:16:45.849Z,10.40
2022-09-27T06:17:45.699Z,10.41
2022-09-27T06:18:45.688Z,10.26
2022-09-27T06:20:45.694Z,10.22
2022-09-27T06:21:45.648Z,10.23
2022-09-27T06:22:45.634Z,10.22
2022-09-27T06:23:45.621Z,10.25
2022-09-27T06:24:45.617Z,10.23
2022-09-27T06:25:45.599Z,10.26
2022-09-27T06:26:45.582Z,10.29
2022-09-27T06:27:45.566Z,10.32
2022-09-27T06:28:45.553Z,10.29
2022-09-27T06:29:45.541Z,10.23
2022-09-27T06:31:45.513Z,10.38
2022-09-27T06:32:45.503Z,10.40
2022-09-27T06:33:45.486Z,10.47
2022-09-27T06:34:45.473Z,10.51
2022-09-27T06:35:45.531Z,10.51
2022-09-27T06:36:48.242Z,10.51
2022-09-27T06:37:45.433Z,10.51
2022-09-27T06:38:45.421Z,10.52
2022-09-27T06:39:45.410Z,10.54
2022-09-27T06:40:45.465Z,10.58
2022-09-27T06:42:45.368Z,10.65
2022-09-27T06:43:45.379Z,10.55
2022-09-27T06:44:49.444Z,10.54
2022-09-27T06:45:45.390Z,10.63
2022-09-27T06:46:45.316Z,10.59
2022-09-27T06:47:45.301Z,10.60
2022-09-27T06:48:45.289Z,10.59
2022-09-27T06:49:45.275Z,10.58
2022-09-27T06:50:45.267Z,10.52
2022-09-27T06:51:45.248Z,10.48
2022-09-27T06:53:45.229Z,10.47
2022-09-27T06:54:45.215Z,10.51
2022-09-27T06:55:45.199Z,10.55
2022-09-27T06:56:45.184Z,10.58
2022-09-27T06:57:45.169Z,10.65
2022-09-27T06:58:45.159Z,10.77
2022-09-27T06:59:45.147Z,10.69
2022-09-27T07:00:45.134Z,10.73
2022-09-27T07:01:45.257Z,10.65
2022-09-27T07:02:45.108Z,10.75
2022-09-27T07:04:45.080Z,10.78
2022-09-27T07:05:45.065Z,10.77
2022-09-27T07:06:45.053Z,10.85
2022-09-27T07:07:45.039Z,10.75
2022-09-27T07:08:45.051Z,10.73
2022-09-27T07:09:45.012Z,10.62
2022-09-27T07:10:45.001Z,10.62
2022-09-27T07:11:44.987Z,10.62
2022-09-27T07:12:44.973Z,10.78
2022-09-27T07:13:44.960Z,10.81
2022-09-27T07:15:44.932Z,10.91
2022-09-27T07:16:44.994Z,11.02
2022-09-27T07:17:44.906Z,11.05
2022-09-27T07:18:44.897Z,10.95
2022-09-27T07:19:44.880Z,11.05
2022-09-27T07:20:44.871Z,11.16
2022-09-27T07:21:44.855Z,11.44
2022-09-27T07:22:44.843Z,11.60
2022-09-27T07:23:44.829Z,11.58
2022-09-27T07:24:44.841Z,11.54
2022-09-27T07:26:44.791Z,11.28
2022-09-27T07:27:44.778Z,11.08
2022-09-27T07:28:44.765Z,10.93
2022-09-27T07:29:44.750Z,10.72
2022-09-27T07:30:44.783Z,10.75
2022-09-27T07:31:44.727Z,10.75
2022-09-27T07:32:44.715Z,10.60
2022-09-27T07:33:44.699Z,10.58
2022-09-27T07:34:44.690Z,10.52
2022-09-27T07:35:44.672Z,10.51
2022-09-27T07:37:44.647Z,10.48
2022-09-27T07:38:44.635Z,10.38
2022-09-27T07:39:44.619Z,10.44
2022-09-27T07:40:44.679Z,10.54
2022-09-27T07:41:44.594Z,10.52
2022-09-27T07:42:44.583Z,10.44
2022-09-27T07:43:44.568Z,10.40
2022-09-27T07:44:44.556Z,10.48
2022-09-27T07:45:44.601Z,10.55
2022-09-27T07:46:44.531Z,10.51
2022-09-27T07:48:44.501Z,10.69
2022-09-27T07:49:44.487Z,10.84
2022-09-27T07:50:44.478Z,10.91
2022-09-27T07:51:44.462Z,10.91
2022-09-27T07:52:44.549Z,10.95
2022-09-27T07:53:44.436Z,11.03
2022-09-27T07:54:44.423Z,11.02
2022-09-27T07:55:44.407Z,11.25
2022-09-27T07:56:44.432Z,11.32
2022-09-27T07:57:44.381Z,11.22
2022-09-27T07:59:44.355Z,11.70
2022-09-27T08:00:44.343Z,12.19
2022-09-27T08:01:44.330Z,12.44
2022-09-27T08:02:44.319Z,12.58
2022-09-27T08:03:44.305Z,12.61
2022-09-27T08:04:44.292Z,13.04
2022-09-27T08:05:44.280Z,13.07
2022-09-27T08:06:44.265Z,12.82
2022-09-27T08:07:44.250Z,12.97
2022-09-27T08:08:44.239Z,13.35
2022-09-27T08:10:44.255Z,13.32
2022-09-27T08:11:44.197Z,13.03
2022-09-27T08:12:44.212Z,12.71
2022-09-27T08:13:44.176Z,12.52
2022-09-27T08:14:48.176Z,12.48
2022-09-27T08:15:44.145Z,12.77
2022-09-27T08:16:44.192Z,12.82
2022-09-27T08:17:44.118Z,13.15
2022-09-27T08:18:44.107Z,13.35
2022-09-27T08:19:44.092Z,12.97
2022-09-27T08:21:44.065Z,13.11
2022-09-27T08:22:44.053Z,12.92
2022-09-27T08:23:44.038Z,13.08
2022-09-27T08:24:44.028Z,13.44
2022-09-27T08:25:44.012Z,13.54
2022-09-27T08:26:44.000Z,14.70
2022-09-27T08:27:43.985Z,15.18
2022-09-27T08:28:44.002Z,15.27
2022-09-27T08:29:43.960Z,15.02
2022-09-27T08:30:43.950Z,14.65
2022-09-27T08:32:43.921Z,14.27
2022-09-27T08:33:43.906Z,14.28
2022-09-27T08:34:43.895Z,14.17
2022-09-27T08:35:43.879Z,13.95
2022-09-27T08:36:43.866Z,14.07
2022-09-27T08:37:43.851Z,13.87
2022-09-27T08:38:43.839Z,13.65
2022-09-27T08:39:47.816Z,13.94
2022-09-27T08:40:43.876Z,14.03
2022-09-27T08:41:43.799Z,14.72
2022-09-27T08:43:43.777Z,14.50
2022-09-27T08:44:43.886Z,14.12
2022-09-27T08:45:43.807Z,13.61
2022-09-27T08:46:43.734Z,13.61
2022-09-27T08:47:43.724Z,13.32
2022-09-27T08:48:43.709Z,13.32
2022-09-27T08:49:43.693Z,14.10
2022-09-27T08:50:43.682Z,14.88
2022-09-27T08:51:43.667Z,14.68
2022-09-27T08:52:43.658Z,14.20
2022-09-27T08:54:43.627Z,13.58
2022-09-27T08:55:43.716Z,13.35
2022-09-27T08:56:43.601Z,13.05
2022-09-27T08:57:43.586Z,12.95
2022-09-27T08:58:43.578Z,13.01
2022-09-27T08:59:43.560Z,12.78
2022-09-27T09:00:43.653Z,12.78
2022-09-27T09:01:43.536Z,12.71
2022-09-27T09:02:43.523Z,12.48
2022-09-27T09:03:43.507Z,12.40
2022-09-27T09:05:43.482Z,12.55
2022-09-27T09:06:43.473Z,12.51
2022-09-27T09:07:43.455Z,12.67
2022-09-27T09:08:47.452Z,12.85
2022-09-27T09:09:43.428Z,12.92
2022-09-27T09:10:43.419Z,12.86
2022-09-27T09:11:43.403Z,12.61
2022-09-27T09:12:43.391Z,12.61
2022-09-27T09:13:43.375Z,12.68
2022-09-27T09:14:43.364Z,12.58
2022-09-27T09:16:43.475Z,12.68
2022-09-27T09:17:43.327Z,12.79
2022-09-27T09:18:43.311Z,12.70
2022-09-27T09:19:43.297Z,12.83
2022-09-27T09:20:43.287Z,12.78
2022-09-27T09:21:43.276Z,12.75
2022-09-27T09:22:43.262Z,12.90
2022-09-27T09:23:43.246Z,12.85
2022-09-27T09:24:43.234Z,12.90
2022-09-27T09:25:43.220Z,12.82
2022-09-27T09:27:43.194Z,13.14
2022-09-27T09:28:43.180Z,13.37
2022-09-27T09:29:43.166Z,13.22
2022-09-27T09:30:43.160Z,13.10
2022-09-27T09:31:43.209Z,13.22
2022-09-27T09:32:43.155Z,13.58
2022-09-27T09:33:43.113Z,14.02
2022-09-27T09:34:43.102Z,14.80
2022-09-27T09:35:43.088Z,15.53
2022-09-27T09:36:43.076Z,15.84
2022-09-27T09:38:43.049Z,16.02
2022-09-27T09:39:43.035Z,16.04
2022-09-27T09:40:43.068Z,16.55
2022-09-27T09:41:43.009Z,16.40
2022-09-27T09:42:42.997Z,16.40
2022-09-27T09:43:42.985Z,15.84
2022-09-27T09:44:42.970Z,15.38
2022-09-27T09:45:43.067Z,14.94
2022-09-27T09:46:45.722Z,14.28
2022-09-27T09:47:42.931Z,13.99
2022-09-27T09:49:42.907Z,13.74
2022-09-27T09:50:42.892Z,13.59
2022-09-27T09:51:42.879Z,13.44
2022-09-27T09:52:42.863Z,13.58
2022-09-27T09:53:42.852Z,13.56
2022-09-27T09:54:42.838Z,13.22
2022-09-27T09:55:42.827Z,13.11
2022-09-27T09:56:42.814Z,13.05
2022-09-27T09:57:42.803Z,13.01
2022-09-27T09:58:42.786Z,12.79
2022-09-27T10:00:42.814Z,12.85
2022-09-27T10:01:42.749Z,12.86
2022-09-27T10:02:42.733Z,12.96
2022-09-27T10:03:42.723Z,12.95
2022-09-27T10:04:42.732Z,13.11
2022-09-27T10:05:42.697Z,13.23
2022-09-27T10:06:42.680Z,13.33
2022-09-27T10:07:42.668Z,13.26
2022-09-27T10:08:42.654Z,13.29
2022-09-27T10:09:42.640Z,13.28
2022-09-27T10:11:42.616Z,13.11
2022-09-27T10:12:42.600Z,13.11
2022-09-27T10:13:42.590Z,13.19
2022-09-27T10:14:42.573Z,13.08
2022-09-27T10:15:42.564Z,12.90
2022-09-27T10:16:42.638Z,12.87
2022-09-27T10:17:42.534Z,12.85
2022-09-27T10:18:46.315Z,12.82
2022-09-27T10:19:42.508Z,12.78
2022-09-27T10:20:42.528Z,12.79
2022-09-27T10:22:42.466Z,12.74
2022-09-27T10:23:42.454Z,12.70
2022-09-27T10:24:42.438Z,12.75
2022-09-27T10:25:42.426Z,12.83
2022-09-27T10:26:42.411Z,12.79
2022-09-27T10:27:42.398Z,12.75
2022-09-27T10:28:42.385Z,12.75
2022-09-27T10:29:42.375Z,12.71
2022-09-27T10:30:42.359Z,12.67
2022-09-27T10:31:42.378Z,12.64
2022-09-27T10:33:42.321Z,12.55
2022-09-27T10:34:42.305Z,12.38
2022-09-27T10:35:42.293Z,12.36
2022-09-27T10:36:42.310Z,12.52
2022-09-27T10:37:42.267Z,12.52
2022-09-27T10:38:42.255Z,12.61
2022-09-27T10:39:42.242Z,12.61
2022-09-27T10:40:42.300Z,12.68
2022-09-27T10:41:42.221Z,12.71
2022-09-27T10:42:42.202Z,12.77
2022-09-27T10:44:42.173Z,12.78
2022-09-27T10:45:42.222Z,12.64
2022-09-27T10:46:42.147Z,12.61
2022-09-27T10:47:42.134Z,12.64
2022-09-27T10:48:42.126Z,12.74
2022-09-27T10:49:42.110Z,12.79
2022-09-27T10:50:51.584Z,12.96
2022-09-27T10:51:44.111Z,12.90
2022-09-27T10:52:42.067Z,12.89
2022-09-27T10:53:42.055Z,12.85
2022-09-27T10:55:42.029Z,12.86
2022-09-27T10:56:42.014Z,12.90
2022-09-27T10:57:45.192Z,12.90
2022-09-27T10:58:41.990Z,12.95
2022-09-27T10:59:41.978Z,12.95
2022-09-27T11:00:41.979Z,13.01
2022-09-27T11:01:41.949Z,13.08
2022-09-27T11:02:41.939Z,13.14
2022-09-27T11:03:41.923Z,13.11
2022-09-27T11:04:41.956Z,13.08
2022-09-27T11:06:41.882Z,12.64
2022-09-27T11:07:41.897Z,12.61
2022-09-27T11:08:41.857Z,12.71
2022-09-27T11:09:41.864Z,12.67
2022-09-27T11:10:41.832Z,12.68
2022-09-27T11:11:41.824Z,12.74
2022-09-27T11:12:41.809Z,12.67
2022-09-27T11:13:41.794Z,12.72
2022-09-27T11:14:41.778Z,12.82
2022-09-27T11:15:41.767Z,12.93
2022-09-27T11:17:41.741Z,13.19
2022-09-27T11:18:41.725Z,13.45
2022-09-27T11:19:41.719Z,13.70
2022-09-27T11:20:41.699Z,14.15
2022-09-27T11:21:41.686Z,14.77
2022-09-27T11:22:41.672Z,15.62
2022-09-27T11:23:41.693Z,16.08
2022-09-27T11:24:41.646Z,16.01
2022-09-27T11:25:41.634Z,15.71
2022-09-27T11:26:41.620Z,15.09
2022-09-27T11:28:41.593Z,14.37
2022-09-27T11:29:41.581Z,14.02
2022-09-27T11:30:41.565Z,13.90
2022-09-27T11:31:41.579Z,13.77
2022-09-27T11:32:41.541Z,13.86
2022-09-27T11:33:41.530Z,13.88
2022-09-27T11:34:41.514Z,13.68
2022-09-27T11:35:41.502Z,13.58
2022-09-27T11:36:41.489Z,13.65
2022-09-27T11:37:41.480Z,13.37
2022-09-27T11:39:41.476Z,13.48
2022-09-27T11:40:41.471Z,13.62
2022-09-27T11:41:41.432Z,13.66
2022-09-27T11:42:41.410Z,13.35
2022-09-27T11:43:41.397Z,13.25
2022-09-27T11:44:41.385Z,13.29
2022-09-27T11:46:03.478Z,13.51
2022-09-27T11:46:42.215Z,13.61
2022-09-27T11:47:41.484Z,13.32
2022-09-27T11:48:41.338Z,13.25
2022-09-27T11:50:41.304Z,13.30
2022-09-27T11:51:41.299Z,13.25
2022-09-27T11:52:41.277Z,13.26
2022-09-27T11:53:41.265Z,13.23
2022-09-27T11:54:41.249Z,13.30
2022-09-27T11:55:41.297Z,13.40
2022-09-27T11:56:41.224Z,13.58
2022-09-27T11:57:41.211Z,13.68
2022-09-27T11:58:41.197Z,13.68
2022-09-27T11:59:41.186Z,13.62
2022-09-27T12:01:41.201Z,13.50
2022-09-27T12:02:41.168Z,13.33
2022-09-27T12:03:41.131Z,13.28
2022-09-27T12:04:41.116Z,13.33
2022-09-27T12:05:41.104Z,13.51
2022-09-27T12:06:41.091Z,13.33
2022-09-27T12:07:41.080Z,13.37
2022-09-27T12:08:41.062Z,13.51
2022-09-27T12:09:41.050Z,13.59
2022-09-27T12:10:41.036Z,13.80
2022-09-27T12:12:41.013Z,14.29
2022-09-27T12:13:40.996Z,14.35
2022-09-27T12:14:40.981Z,14.28
2022-09-27T12:15:41.056Z,14.07
2022-09-27T12:16:40.956Z,14.22
2022-09-27T12:17:40.946Z,14.17
2022-09-27T12:18:40.947Z,14.21
2022-09-27T12:19:40.919Z,14.33
2022-09-27T12:20:40.903Z,14.43
2022-09-27T12:21:40.894Z,14.17
2022-09-27T12:23:40.868Z,14.01
2022-09-27T12:24:40.853Z,13.98
2022-09-27T12:25:40.841Z,13.81
2022-09-27T12:26:40.824Z,14.14
2022-09-27T12:27:40.887Z,14.25
2022-09-27T12:28:40.799Z,14.28
2022-09-27T12:29:40.786Z,14.17
2022-09-27T12:30:40.773Z,14.25
2022-09-27T12:31:40.776Z,14.60
2022-09-27T12:32:40.745Z,15.09
2022-09-27T12:34:40.719Z,15.43
2022-09-27T12:35:40.709Z,15.38
2022-09-27T12:36:40.694Z,15.59
2022-09-27T12:37:40.681Z,15.43
2022-09-27T12:38:40.669Z,15.83
2022-09-27T12:39:40.662Z,16.02
2022-09-27T12:40:40.750Z,16.09
2022-09-27T12:41:40.627Z,15.84
2022-09-27T12:43:40.625Z,15.46
2022-09-27T12:45:40.573Z,15.00
2022-09-27T12:46:40.632Z,14.85
2022-09-27T12:47:40.545Z,14.70
2022-09-27T12:48:40.530Z,14.40
2022-09-27T12:49:40.518Z,14.22
2022-09-27T12:50:40.503Z,14.12
2022-09-27T12:51:40.491Z,14.09
2022-09-27T12:52:40.477Z,14.28
2022-09-27T12:53:40.468Z,14.22
2022-09-27T12:54:40.450Z,14.32
2022-09-27T12:56:40.424Z,14.55
2022-09-27T12:57:40.416Z,14.70
2022-09-27T12:58:40.404Z,14.60
2022-09-27T12:59:40.410Z,14.40
2022-09-27T13:00:40.433Z,14.43
2022-09-27T13:01:40.514Z,14.42
2022-09-27T13:02:57.444Z,14.40
2022-09-27T13:03:40.333Z,14.43
2022-09-27T13:04:40.319Z,14.35
2022-09-27T13:05:40.308Z,14.42
2022-09-27T13:07:40.280Z,14.25
2022-09-27T13:08:40.265Z,14.20
2022-09-27T13:09:40.254Z,14.27
2022-09-27T13:10:40.239Z,14.47
2022-09-27T13:11:40.227Z,14.58
2022-09-27T13:12:40.212Z,14.83
2022-09-27T13:13:40.201Z,14.79
2022-09-27T13:14:40.186Z,14.93
2022-09-27T13:15:40.287Z,14.98
2022-09-27T13:16:40.159Z,14.83
2022-09-27T13:18:40.134Z,14.55
2022-09-27T13:19:40.122Z,14.52
2022-09-27T13:20:40.105Z,14.51
2022-09-27T13:21:40.095Z,14.46
2022-09-27T13:22:40.079Z,14.64
2022-09-27T13:23:40.069Z,14.70
2022-09-27T13:24:40.053Z,14.60
2022-09-27T13:25:40.044Z,14.28
2022-09-27T13:26:40.030Z,14.24
2022-09-27T13:27:40.016Z,14.36
2022-09-27T13:29:39.988Z,14.21
2022-09-27T13:30:39.974Z,14.21
2022-09-27T13:31:40.016Z,14.22
2022-09-27T13:32:39.947Z,14.37
2022-09-27T13:33:39.939Z,14.20
2022-09-27T13:34:39.921Z,14.17
2022-09-27T13:35:39.909Z,14.12
2022-09-27T13:36:39.894Z,13.96
2022-09-27T13:37:39.884Z,14.01
2022-09-27T13:38:39.867Z,14.06
2022-09-27T13:40:39.915Z,14.02
2022-09-27T13:41:39.829Z,14.07
2022-09-27T13:42:39.816Z,13.95
2022-09-27T13:43:39.804Z,13.88
2022-09-27T13:44:39.788Z,13.87
2022-09-27T13:45:39.777Z,13.88
2022-09-27T13:46:39.819Z,13.86
2022-09-27T13:47:39.777Z,13.94
2022-09-27T13:48:39.736Z,13.96
2022-09-27T13:49:39.725Z,13.96
2022-09-27T13:51:39.699Z,14.09
2022-09-27T13:52:39.684Z,14.22
2022-09-27T13:53:39.673Z,14.17
2022-09-27T13:54:39.656Z,14.20
2022-09-27T13:55:39.660Z,14.27
2022-09-27T13:56:39.631Z,14.18
2022-09-27T13:58:39.605Z,14.14
2022-09-27T13:59:39.593Z,14.06
2022-09-27T14:00:39.695Z,14.35
2022-09-27T14:02:39.552Z,14.46
2022-09-27T14:03:39.570Z,14.47
2022-09-27T14:04:39.527Z,14.58
2022-09-27T14:05:39.513Z,14.62
2022-09-27T14:06:39.500Z,14.58
2022-09-27T14:07:39.486Z,14.65
2022-09-27T14:08:39.475Z,14.46
2022-09-27T14:09:39.460Z,14.27
2022-09-27T14:10:39.449Z,14.20
2022-09-27T14:11:39.438Z,14.22
2022-09-27T14:13:39.407Z,13.98
2022-09-27T14:14:39.396Z,13.99
2022-09-27T14:15:39.386Z,14.12
2022-09-27T14:16:39.444Z,14.09